»·PEaware :: N132KT KLSK-KANW

N132KT :: KLSK-KANW

FLIGHT INFORMATION

Flight Status: Arrived
Operator: Privately registered:
United States
More flights under this callsign
Pilot: Keith S. (1)
Aircraft: BEECH AIRCRAFT BARON
(BE58)
More flights by this aircraft type
Origin: KLSK Lusk Mun
United States
Destination: KANW Ainsworth Mun
United States
More flights between these airports :: More routes between these airports
Route:
File this flight plan on PilotEdge
Remarks:
Altitude:
(Current/Filed)
9,500ft
Speed:
(Current/Filed)
165kts
Departed: 26-Apr-19 10:35 AM
Arrived: 26-Apr-19 11:31 AM
Distance/Time
Traveled:
195nm/0:56
Distance/Time
To Go:
Arrived

Flight Plot

Page will automatically refresh every two minutes.

Flight plan parsing failed; only flown route is shown


Map Options




Map Legend


Flown Route
Filed Route
Departure Airport
Arrival Airport
Navaid (VOR, NDB)
Fix

Horizontal Profiles

Position Reports

Time Latitude Longitude Heading Altitude Ground
Speed
26-Apr-19 10:33 42.713002 -103.538063 94 9503ft 191kts
26-Apr-19 10:34 42.711370 -103.465685 94 9503ft 191kts
26-Apr-19 10:35 42.709688 -103.393189 94 9504ft 191kts
26-Apr-19 10:36 42.707960 -103.320426 94 9499ft 191kts
26-Apr-19 10:37 42.706199 -103.248441 94 9499ft 190kts
26-Apr-19 10:38 42.704395 -103.176594 94 9500ft 190kts
26-Apr-19 10:39 42.702547 -103.104646 95 9500ft 189kts
26-Apr-19 10:40 42.700658 -103.032904 95 9501ft 189kts
26-Apr-19 10:41 42.698736 -102.961621 95 9501ft 188kts
26-Apr-19 10:42 42.696781 -102.890636 95 9510ft 187kts
26-Apr-19 10:43 42.694776 -102.819573 95 9523ft 187kts
26-Apr-19 10:44 42.692731 -102.748662 95 9534ft 187kts
26-Apr-19 10:45 42.690640 -102.677616 95 9538ft 188kts
26-Apr-19 10:46 42.688512 -102.606555 95 9543ft 188kts
26-Apr-19 10:47 42.686327 -102.535140 95 9545ft 188kts
26-Apr-19 10:48 42.684078 -102.463898 95 9545ft 188kts
26-Apr-19 10:49 42.681776 -102.392242 95 9545ft 189kts
26-Apr-19 10:50 42.679475 -102.320746 96 9538ft 188kts
26-Apr-19 10:51 42.677119 -102.249793 96 9536ft 187kts
26-Apr-19 10:52 42.674723 -102.178841 96 9537ft 187kts
26-Apr-19 10:53 42.672276 -102.107950 96 9538ft 187kts
26-Apr-19 10:54 42.669781 -102.037008 96 9537ft 187kts
26-Apr-19 10:55 42.667273 -101.966083 96 9536ft 187kts
26-Apr-19 10:56 42.664685 -101.895217 96 9538ft 187kts
26-Apr-19 10:57 42.662061 -101.824179 96 9537ft 188kts
26-Apr-19 10:58 42.659409 -101.753305 96 9538ft 188kts
26-Apr-19 10:59 42.656696 -101.682199 96 9539ft 188kts
26-Apr-19 11:00 42.653945 -101.611022 96 9539ft 188kts
26-Apr-19 11:01 42.651133 -101.539974 96 9539ft 188kts
26-Apr-19 11:02 42.648304 -101.468761 96 9554ft 187kts
26-Apr-19 11:03 42.645424 -101.398039 96 9583ft 186kts
26-Apr-19 11:04 42.642517 -101.327340 97 9605ft 186kts
26-Apr-19 11:05 42.639589 -101.257372 98 9628ft 185kts
26-Apr-19 11:06 42.636573 -101.186907 97 9627ft 186kts
26-Apr-19 11:07 42.633557 -101.116566 98 9629ft 186kts
26-Apr-19 11:08 42.630474 -101.045886 98 9629ft 186kts
26-Apr-19 11:09 42.627364 -100.975361 99 9628ft 186kts
26-Apr-19 11:10 42.624225 -100.904759 100 9629ft 186kts
26-Apr-19 11:11 42.621026 -100.834548 102 9630ft 186kts
26-Apr-19 11:12 42.617774 -100.764678 103 9628ft 184kts
26-Apr-19 11:13 42.614497 -100.695116 103 9630ft 184kts
26-Apr-19 11:14 42.611199 -100.625722 103 9631ft 184kts
26-Apr-19 11:15 42.607830 -100.555686 103 9594ft 185kts
26-Apr-19 11:16 42.605265 -100.502973 103 9594ft 185kts
26-Apr-19 11:17 42.605265 -100.502973 103 9594ft 185kts
26-Apr-19 11:18 42.605265 -100.502973 103 9594ft 185kts
26-Apr-19 11:19 42.605265 -100.502973 103 9594ft 185kts
26-Apr-19 11:20 42.605265 -100.502973 103 9594ft 185kts
26-Apr-19 11:21 42.603801 -100.472879 103 9595ft 184kts
26-Apr-19 11:22 42.600303 -100.403016 103 9440ft 193kts
26-Apr-19 11:23 42.596581 -100.328086 103 8886ft 201kts
26-Apr-19 11:24 42.592737 -100.252056 103 8181ft 200kts
26-Apr-19 11:25 42.588921 -100.177751 103 7256ft 191kts
26-Apr-19 11:26 42.585317 -100.108185 102 5910ft 176kts
26-Apr-19 11:27 42.582660 -100.055880 103 4224ft 122kts
26-Apr-19 11:28 42.591224 -100.012500 17 3624ft 138kts
26-Apr-19 11:29 42.585763 -99.996671 172 2594ft 101kts
26-Apr-19 11:30 42.577673 -99.996536 180 2583ft 0kts
26-Apr-19 11:31 42.577673 -99.996536 180 2583ft 0kts
26-Apr-19 11:32 42.577673 -99.996536 180 2583ft 0kts
26-Apr-19 11:33 42.577673 -99.996536 180 2583ft 0kts

Navigation Log

Ident Type
Flight plan parsing failed, navigation log unavailable